Terminal Aerodrome Forecast
Issued by NWS

Current Version | Previous Version | Graphics & Text | Print | Product List | Glossary On
Versions: 1 2 3 4 5 6 7 8 9 10 11 12 13 14 15 16 17
393
FTUS41 KPBZ 032320
TAFMGW
TAF
KMGW 032320Z 0400/0424 26010KT P6SM FEW040
     FM040800 28008KT P6SM OVC025=

USA.gov is the U.S. government's official web portal to all federal, state and local government web resources and services.